sensor_id;sensor_type;location;lat;lon;timestamp;temperature;humidity
39881;DHT22;25554;44.954;10.068;2023-07-08T00:00:10;22.10;99.90
39881;DHT22;25554;44.954;10.068;2023-07-08T00:02:37;22.20;99.90
39881;DHT22;25554;44.954;10.068;2023-07-08T00:05:10;22.20;99.90
39881;DHT22;25554;44.954;10.068;2023-07-08T00:07:39;22.20;99.90
39881;DHT22;25554;44.954;10.068;2023-07-08T00:12:40;22.20;99.90
39881;DHT22;25554;44.954;10.068;2023-07-08T00:15:07;22.20;99.90
39881;DHT22;25554;44.954;10.068;2023-07-08T00:17:33;22.10;99.90
39881;DHT22;25554;44.954;10.068;2023-07-08T00:19:59;22.10;99.90
39881;DHT22;25554;44.954;10.068;2023-07-08T00:22:26;22.10;99.90
39881;DHT22;25554;44.954;10.068;2023-07-08T00:24:54;22.00;99.90
39881;DHT22;25554;44.954;10.068;2023-07-08T00:27:20;21.90;99.90
39881;DHT22;25554;44.954;10.068;2023-07-08T00:29:47;21.90;99.90
39881;DHT22;25554;44.954;10.068;2023-07-08T00:32:14;21.90;99.90
39881;DHT22;25554;44.954;10.068;2023-07-08T00:34:41;21.90;99.90
39881;DHT22;25554;44.954;10.068;2023-07-08T00:37:11;21.90;99.90
39881;DHT22;25554;44.954;10.068;2023-07-08T00:39:38;21.90;99.90
39881;DHT22;25554;44.954;10.068;2023-07-08T00:42:19;22.00;99.90
39881;DHT22;25554;44.954;10.068;2023-07-08T00:44:48;21.90;99.90
39881;DHT22;25554;44.954;10.068;2023-07-08T00:47:15;21.90;99.90
39881;DHT22;25554;44.954;10.068;2023-07-08T00:49:49;21.70;99.90
39881;DHT22;25554;44.954;10.068;2023-07-08T00:52:27;21.60;99.90
39881;DHT22;25554;44.954;10.068;2023-07-08T00:55:00;21.40;99.90
39881;DHT22;25554;44.954;10.068;2023-07-08T00:57:32;21.30;99.90
39881;DHT22;25554;44.954;10.068;2023-07-08T01:00:11;21.20;99.90
39881;DHT22;25554;44.954;10.068;2023-07-08T01:02:45;21.00;99.90
39881;DHT22;25554;44.954;10.068;2023-07-08T01:05:22;20.90;99.90
39881;DHT22;25554;44.954;10.068;2023-07-08T01:07:54;20.80;99.90
39881;DHT22;25554;44.954;10.068;2023-07-08T01:10:33;20.70;99.90
39881;DHT22;25554;44.954;10.068;2023-07-08T01:13:04;20.70;99.90
39881;DHT22;25554;44.954;10.068;2023-07-08T01:15:39;20.60;99.90
39881;DHT22;25554;44.954;10.068;2023-07-08T01:18:09;20.60;99.90
39881;DHT22;25554;44.954;10.068;2023-07-08T01:20:36;20.50;99.90
39881;DHT22;25554;44.954;10.068;2023-07-08T01:23:03;20.50;99.90
39881;DHT22;25554;44.954;10.068;2023-07-08T01:25:31;20.50;99.90
39881;DHT22;25554;44.954;10.068;2023-07-08T01:27:58;20.50;99.90
39881;DHT22;25554;44.954;10.068;2023-07-08T01:30:25;20.60;99.90
39881;DHT22;25554;44.954;10.068;2023-07-08T01:32:56;20.60;99.90
39881;DHT22;25554;44.954;10.068;2023-07-08T01:35:23;20.60;99.90
39881;DHT22;25554;44.954;10.068;2023-07-08T01:37:51;20.50;99.90
39881;DHT22;25554;44.954;10.068;2023-07-08T01:42:48;20.40;99.90
39881;DHT22;25554;44.954;10.068;2023-07-08T01:45:19;20.40;99.90
39881;DHT22;25554;44.954;10.068;2023-07-08T01:48:10;20.40;99.90
39881;DHT22;25554;44.954;10.068;2023-07-08T01:50:37;20.30;99.90
39881;DHT22;25554;44.954;10.068;2023-07-08T01:53:10;20.30;99.90
39881;DHT22;25554;44.954;10.068;2023-07-08T01:55:37;20.30;99.90
39881;DHT22;25554;44.954;10.068;2023-07-08T01:58:04;20.30;99.90
39881;DHT22;25554;44.954;10.068;2023-07-08T02:00:30;20.30;99.90
39881;DHT22;25554;44.954;10.068;2023-07-08T02:02:56;20.30;99.90
39881;DHT22;25554;44.954;10.068;2023-07-08T02:05:23;20.20;99.90
39881;DHT22;25554;44.954;10.068;2023-07-08T02:07:50;20.10;99.90
39881;DHT22;25554;44.954;10.068;2023-07-08T02:10:16;20.00;99.90
39881;DHT22;25554;44.954;10.068;2023-07-08T02:12:42;19.90;99.90
39881;DHT22;25554;44.954;10.068;2023-07-08T02:15:09;19.90;99.90
39881;DHT22;25554;44.954;10.068;2023-07-08T02:17:37;19.90;99.90
39881;DHT22;25554;44.954;10.068;2023-07-08T02:20:03;19.90;99.90
39881;DHT22;25554;44.954;10.068;2023-07-08T02:22:30;19.90;99.90
39881;DHT22;25554;44.954;10.068;2023-07-08T02:24:56;19.90;99.90
39881;DHT22;25554;44.954;10.068;2023-07-08T02:27:22;19.90;99.90
39881;DHT22;25554;44.954;10.068;2023-07-08T02:29:49;19.90;99.90
39881;DHT22;25554;44.954;10.068;2023-07-08T02:32:15;19.90;99.90
39881;DHT22;25554;44.954;10.068;2023-07-08T02:34:41;19.90;99.90
39881;DHT22;25554;44.954;10.068;2023-07-08T02:37:07;19.90;99.90
39881;DHT22;25554;44.954;10.068;2023-07-08T02:39:34;19.80;99.90
39881;DHT22;25554;44.954;10.068;2023-07-08T02:42:00;19.80;99.90
39881;DHT22;25554;44.954;10.068;2023-07-08T02:44:27;19.80;99.90
39881;DHT22;25554;44.954;10.068;2023-07-08T02:46:53;19.90;99.90
39881;DHT22;25554;44.954;10.068;2023-07-08T02:49:19;19.90;99.90
39881;DHT22;25554;44.954;10.068;2023-07-08T02:51:45;19.90;99.90
39881;DHT22;25554;44.954;10.068;2023-07-08T02:54:12;19.90;99.90
39881;DHT22;25554;44.954;10.068;2023-07-08T02:56:38;19.80;99.90
39881;DHT22;25554;44.954;10.068;2023-07-08T02:59:04;19.80;99.90
39881;DHT22;25554;44.954;10.068;2023-07-08T03:01:32;19.80;99.90
39881;DHT22;25554;44.954;10.068;2023-07-08T03:04:11;19.70;99.90
39881;DHT22;25554;44.954;10.068;2023-07-08T03:06:43;19.70;99.90
39881;DHT22;25554;44.954;10.068;2023-07-08T03:09:11;19.60;99.90
39881;DHT22;25554;44.954;10.068;2023-07-08T03:11:40;19.60;99.90
39881;DHT22;25554;44.954;10.068;2023-07-08T03:14:08;19.60;99.90
39881;DHT22;25554;44.954;10.068;2023-07-08T03:16:34;19.60;99.90
39881;DHT22;25554;44.954;10.068;2023-07-08T03:19:01;19.60;99.90
39881;DHT22;25554;44.954;10.068;2023-07-08T03:21:28;19.50;99.90
39881;DHT22;25554;44.954;10.068;2023-07-08T03:23:55;19.50;99.90
39881;DHT22;25554;44.954;10.068;2023-07-08T03:26:24;19.60;99.90
39881;DHT22;25554;44.954;10.068;2023-07-08T03:28:51;19.60;99.90
39881;DHT22;25554;44.954;10.068;2023-07-08T03:31:19;19.70;99.90
39881;DHT22;25554;44.954;10.068;2023-07-08T03:33:46;19.70;99.90
39881;DHT22;25554;44.954;10.068;2023-07-08T03:36:13;19.70;99.90
39881;DHT22;25554;44.954;10.068;2023-07-08T03:38:53;19.60;99.90
39881;DHT22;25554;44.954;10.068;2023-07-08T03:41:20;19.50;99.90
39881;DHT22;25554;44.954;10.068;2023-07-08T03:43:46;19.40;99.90
39881;DHT22;25554;44.954;10.068;2023-07-08T03:46:14;19.40;99.90
39881;DHT22;25554;44.954;10.068;2023-07-08T03:48:41;19.40;99.90
39881;DHT22;25554;44.954;10.068;2023-07-08T03:51:17;19.40;99.90
39881;DHT22;25554;44.954;10.068;2023-07-08T03:53:45;19.50;99.90
39881;DHT22;25554;44.954;10.068;2023-07-08T03:56:13;19.40;99.90
39881;DHT22;25554;44.954;10.068;2023-07-08T03:58:40;19.50;99.90
39881;DHT22;25554;44.954;10.068;2023-07-08T04:01:16;19.50;99.90
39881;DHT22;25554;44.954;10.068;2023-07-08T04:03:44;19.60;99.90
39881;DHT22;25554;44.954;10.068;2023-07-08T04:06:12;19.60;99.90
39881;DHT22;25554;44.954;10.068;2023-07-08T04:08:39;19.70;99.90
39881;DHT22;25554;44.954;10.068;2023-07-08T04:11:11;19.50;99.90
39881;DHT22;25554;44.954;10.068;2023-07-08T04:13:38;19.80;99.90
39881;DHT22;25554;44.954;10.068;2023-07-08T04:16:05;19.90;99.90
39881;DHT22;25554;44.954;10.068;2023-07-08T04:18:32;19.90;99.90
39881;DHT22;25554;44.954;10.068;2023-07-08T04:20:58;20.00;99.90
39881;DHT22;25554;44.954;10.068;2023-07-08T04:23:25;20.00;99.90
39881;DHT22;25554;44.954;10.068;2023-07-08T04:25:54;20.10;99.90
39881;DHT22;25554;44.954;10.068;2023-07-08T04:28:21;20.10;99.90
39881;DHT22;25554;44.954;10.068;2023-07-08T04:30:48;20.10;99.90
39881;DHT22;25554;44.954;10.068;2023-07-08T04:33:15;20.10;99.90
39881;DHT22;25554;44.954;10.068;2023-07-08T04:35:42;20.10;99.90
39881;DHT22;25554;44.954;10.068;2023-07-08T04:40:40;20.30;99.90
39881;DHT22;25554;44.954;10.068;2023-07-08T04:43:07;20.40;99.90
39881;DHT22;25554;44.954;10.068;2023-07-08T04:45:33;20.40;99.90
39881;DHT22;25554;44.954;10.068;2023-07-08T04:48:00;20.50;99.90
39881;DHT22;25554;44.954;10.068;2023-07-08T04:50:41;20.60;99.90
39881;DHT22;25554;44.954;10.068;2023-07-08T04:53:09;20.80;99.90
39881;DHT22;25554;44.954;10.068;2023-07-08T04:55:36;20.90;99.90
39881;DHT22;25554;44.954;10.068;2023-07-08T04:58:06;21.00;99.90
39881;DHT22;25554;44.954;10.068;2023-07-08T05:00:33;21.00;99.90
39881;DHT22;25554;44.954;10.068;2023-07-08T05:02:59;21.10;99.90
39881;DHT22;25554;44.954;10.068;2023-07-08T05:05:25;21.10;99.90
39881;DHT22;25554;44.954;10.068;2023-07-08T05:07:54;21.10;99.90
39881;DHT22;25554;44.954;10.068;2023-07-08T05:10:21;21.10;99.90
39881;DHT22;25554;44.954;10.068;2023-07-08T05:12:48;21.10;99.90
39881;DHT22;25554;44.954;10.068;2023-07-08T05:15:15;21.10;99.90
39881;DHT22;25554;44.954;10.068;2023-07-08T05:17:42;21.10;99.90
39881;DHT22;25554;44.954;10.068;2023-07-08T05:20:11;21.00;99.90
39881;DHT22;25554;44.954;10.068;2023-07-08T05:22:39;21.00;99.90
39881;DHT22;25554;44.954;10.068;2023-07-08T05:25:06;21.00;99.90
39881;DHT22;25554;44.954;10.068;2023-07-08T05:27:32;21.00;99.90
39881;DHT22;25554;44.954;10.068;2023-07-08T05:30:05;21.10;99.90
39881;DHT22;25554;44.954;10.068;2023-07-08T05:32:32;21.20;99.90
39881;DHT22;25554;44.954;10.068;2023-07-08T05:34:59;21.20;99.90
39881;DHT22;25554;44.954;10.068;2023-07-08T05:37:25;21.30;99.90
39881;DHT22;25554;44.954;10.068;2023-07-08T05:39:57;21.40;99.90
39881;DHT22;25554;44.954;10.068;2023-07-08T05:42:26;21.40;99.90
39881;DHT22;25554;44.954;10.068;2023-07-08T05:44:53;21.50;99.90
39881;DHT22;25554;44.954;10.068;2023-07-08T05:47:21;21.50;99.90
39881;DHT22;25554;44.954;10.068;2023-07-08T05:49:48;21.50;99.90
39881;DHT22;25554;44.954;10.068;2023-07-08T05:52:14;21.40;99.90
39881;DHT22;25554;44.954;10.068;2023-07-08T05:54:41;21.40;99.90
39881;DHT22;25554;44.954;10.068;2023-07-08T05:57:09;21.30;99.90
39881;DHT22;25554;44.954;10.068;2023-07-08T05:59:37;21.40;99.90
39881;DHT22;25554;44.954;10.068;2023-07-08T06:02:06;21.40;99.90
39881;DHT22;25554;44.954;10.068;2023-07-08T06:04:35;21.50;99.90
39881;DHT22;25554;44.954;10.068;2023-07-08T06:07:01;21.70;99.90
39881;DHT22;25554;44.954;10.068;2023-07-08T06:09:27;21.80;99.90
39881;DHT22;25554;44.954;10.068;2023-07-08T06:11:54;22.00;99.90
39881;DHT22;25554;44.954;10.068;2023-07-08T06:14:20;22.20;99.90
39881;DHT22;25554;44.954;10.068;2023-07-08T06:16:46;22.30;99.90
39881;DHT22;25554;44.954;10.068;2023-07-08T06:19:12;22.40;99.90
39881;DHT22;25554;44.954;10.068;2023-07-08T06:21:43;22.50;99.90
39881;DHT22;25554;44.954;10.068;2023-07-08T06:24:10;22.60;99.90
39881;DHT22;25554;44.954;10.068;2023-07-08T06:26:36;22.80;99.90
39881;DHT22;25554;44.954;10.068;2023-07-08T06:29:03;23.00;99.90
39881;DHT22;25554;44.954;10.068;2023-07-08T06:31:30;23.00;99.90
39881;DHT22;25554;44.954;10.068;2023-07-08T06:33:56;23.10;99.90
39881;DHT22;25554;44.954;10.068;2023-07-08T06:36:22;23.30;99.90
39881;DHT22;25554;44.954;10.068;2023-07-08T06:38:49;23.30;99.90
39881;DHT22;25554;44.954;10.068;2023-07-08T06:41:15;23.30;99.90
39881;DHT22;25554;44.954;10.068;2023-07-08T06:43:42;23.50;99.90
39881;DHT22;25554;44.954;10.068;2023-07-08T06:46:16;23.60;99.90
39881;DHT22;25554;44.954;10.068;2023-07-08T06:48:43;23.80;99.90
39881;DHT22;25554;44.954;10.068;2023-07-08T06:51:09;24.00;99.90
39881;DHT22;25554;44.954;10.068;2023-07-08T06:53:35;24.10;99.90
39881;DHT22;25554;44.954;10.068;2023-07-08T06:56:02;24.20;99.90
39881;DHT22;25554;44.954;10.068;2023-07-08T06:58:28;24.40;99.90
39881;DHT22;25554;44.954;10.068;2023-07-08T07:00:54;24.50;99.90
39881;DHT22;25554;44.954;10.068;2023-07-08T07:03:20;24.70;99.90
39881;DHT22;25554;44.954;10.068;2023-07-08T07:05:46;24.60;99.90
39881;DHT22;25554;44.954;10.068;2023-07-08T07:08:13;24.70;99.90
39881;DHT22;25554;44.954;10.068;2023-07-08T07:10:39;24.90;99.90
39881;DHT22;25554;44.954;10.068;2023-07-08T07:13:05;24.90;99.90
39881;DHT22;25554;44.954;10.068;2023-07-08T07:15:32;25.00;99.90
39881;DHT22;25554;44.954;10.068;2023-07-08T07:17:58;25.10;99.90
39881;DHT22;25554;44.954;10.068;2023-07-08T07:20:25;25.30;99.90
39881;DHT22;25554;44.954;10.068;2023-07-08T07:22:51;25.40;99.90
39881;DHT22;25554;44.954;10.068;2023-07-08T07:25:18;25.40;99.90
39881;DHT22;25554;44.954;10.068;2023-07-08T07:27:45;25.60;99.90
39881;DHT22;25554;44.954;10.068;2023-07-08T07:30:11;26.00;99.90
39881;DHT22;25554;44.954;10.068;2023-07-08T07:32:42;27.50;99.90
39881;DHT22;25554;44.954;10.068;2023-07-08T07:35:10;28.20;99.90
39881;DHT22;25554;44.954;10.068;2023-07-08T07:37:42;28.60;99.90
39881;DHT22;25554;44.954;10.068;2023-07-08T07:40:13;29.00;99.90
39881;DHT22;25554;44.954;10.068;2023-07-08T07:42:43;29.00;99.90
39881;DHT22;25554;44.954;10.068;2023-07-08T07:45:12;28.90;99.90
39881;DHT22;25554;44.954;10.068;2023-07-08T07:47:42;29.10;99.90
39881;DHT22;25554;44.954;10.068;2023-07-08T07:50:13;28.90;99.90
39881;DHT22;25554;44.954;10.068;2023-07-08T07:52:47;28.70;99.90
39881;DHT22;25554;44.954;10.068;2023-07-08T07:55:14;28.60;99.90
39881;DHT22;25554;44.954;10.068;2023-07-08T07:57:40;28.60;99.90
39881;DHT22;25554;44.954;10.068;2023-07-08T08:00:11;28.70;99.90
39881;DHT22;25554;44.954;10.068;2023-07-08T08:02:43;28.70;99.90
39881;DHT22;25554;44.954;10.068;2023-07-08T08:05:15;28.70;99.90
39881;DHT22;25554;44.954;10.068;2023-07-08T08:07:45;28.80;99.90
39881;DHT22;25554;44.954;10.068;2023-07-08T08:10:11;28.70;99.90
39881;DHT22;25554;44.954;10.068;2023-07-08T08:12:37;28.90;99.90
39881;DHT22;25554;44.954;10.068;2023-07-08T08:15:07;29.10;99.90
39881;DHT22;25554;44.954;10.068;2023-07-08T08:17:41;29.20;99.90
39881;DHT22;25554;44.954;10.068;2023-07-08T08:20:18;29.10;99.90
39881;DHT22;25554;44.954;10.068;2023-07-08T08:22:46;28.70;99.90
39881;DHT22;25554;44.954;10.068;2023-07-08T08:25:17;29.40;99.90
39881;DHT22;25554;44.954;10.068;2023-07-08T08:27:50;29.60;99.90
39881;DHT22;25554;44.954;10.068;2023-07-08T08:30:17;29.70;99.90
39881;DHT22;25554;44.954;10.068;2023-07-08T08:32:44;29.70;99.90
39881;DHT22;25554;44.954;10.068;2023-07-08T08:35:10;29.50;99.90
39881;DHT22;25554;44.954;10.068;2023-07-08T08:37:36;29.20;99.90
39881;DHT22;25554;44.954;10.068;2023-07-08T08:40:03;29.10;99.90
39881;DHT22;25554;44.954;10.068;2023-07-08T08:42:40;28.90;99.90
39881;DHT22;25554;44.954;10.068;2023-07-08T08:45:23;28.80;99.90
39881;DHT22;25554;44.954;10.068;2023-07-08T08:48:08;28.80;99.90
39881;DHT22;25554;44.954;10.068;2023-07-08T08:50:47;29.10;99.90
39881;DHT22;25554;44.954;10.068;2023-07-08T08:53:19;29.10;99.90
39881;DHT22;25554;44.954;10.068;2023-07-08T09:01:30;28.90;99.90
39881;DHT22;25554;44.954;10.068;2023-07-08T09:04:04;28.90;99.90
39881;DHT22;25554;44.954;10.068;2023-07-08T09:06:37;28.90;99.90
39881;DHT22;25554;44.954;10.068;2023-07-08T09:09:29;28.90;99.90
39881;DHT22;25554;44.954;10.068;2023-07-08T09:12:04;28.60;99.90
39881;DHT22;25554;44.954;10.068;2023-07-08T09:14:33;28.70;99.90
39881;DHT22;25554;44.954;10.068;2023-07-08T09:17:31;28.60;99.90
39881;DHT22;25554;44.954;10.068;2023-07-08T09:20:15;28.70;99.90
39881;DHT22;25554;44.954;10.068;2023-07-08T09:25:29;28.70;99.90
39881;DHT22;25554;44.954;10.068;2023-07-08T09:27:57;28.80;99.90
39881;DHT22;25554;44.954;10.068;2023-07-08T09:30:24;28.70;99.90
39881;DHT22;25554;44.954;10.068;2023-07-08T09:32:51;28.90;99.90
39881;DHT22;25554;44.954;10.068;2023-07-08T09:35:38;29.10;99.90
39881;DHT22;25554;44.954;10.068;2023-07-08T09:38:09;29.40;99.90
39881;DHT22;25554;44.954;10.068;2023-07-08T09:40:35;29.60;99.50
39881;DHT22;25554;44.954;10.068;2023-07-08T09:43:16;29.60;99.30
39881;DHT22;25554;44.954;10.068;2023-07-08T09:45:46;29.50;98.50
39881;DHT22;25554;44.954;10.068;2023-07-08T09:48:35;29.60;97.40
39881;DHT22;25554;44.954;10.068;2023-07-08T09:51:04;29.70;97.20
39881;DHT22;25554;44.954;10.068;2023-07-08T09:53:30;29.80;97.40
39881;DHT22;25554;44.954;10.068;2023-07-08T09:55:56;30.00;97.00
39881;DHT22;25554;44.954;10.068;2023-07-08T09:58:35;30.20;97.30
39881;DHT22;25554;44.954;10.068;2023-07-08T10:01:14;30.40;97.60
39881;DHT22;25554;44.954;10.068;2023-07-08T10:03:41;30.50;97.70
39881;DHT22;25554;44.954;10.068;2023-07-08T10:06:26;30.50;97.60
39881;DHT22;25554;44.954;10.068;2023-07-08T10:09:02;30.70;97.10
39881;DHT22;25554;44.954;10.068;2023-07-08T10:11:32;30.80;96.00
39881;DHT22;25554;44.954;10.068;2023-07-08T10:14:04;31.00;96.20
39881;DHT22;25554;44.954;10.068;2023-07-08T10:16:33;31.10;96.30
39881;DHT22;25554;44.954;10.068;2023-07-08T10:19:00;31.30;96.00
39881;DHT22;25554;44.954;10.068;2023-07-08T10:24:40;31.30;96.40
39881;DHT22;25554;44.954;10.068;2023-07-08T10:27:25;31.30;95.70
39881;DHT22;25554;44.954;10.068;2023-07-08T10:32:36;31.60;95.50
39881;DHT22;25554;44.954;10.068;2023-07-08T10:38:13;31.70;95.10
39881;DHT22;25554;44.954;10.068;2023-07-08T10:46:19;31.60;94.40
39881;DHT22;25554;44.954;10.068;2023-07-08T11:02:49;32.00;93.70
39881;DHT22;25554;44.954;10.068;2023-07-08T11:07:47;32.50;93.20
39881;DHT22;25554;44.954;10.068;2023-07-08T11:10:18;32.60;92.50
39881;DHT22;25554;44.954;10.068;2023-07-08T11:12:50;32.60;92.80
39881;DHT22;25554;44.954;10.068;2023-07-08T11:15:31;32.70;93.30
39881;DHT22;25554;44.954;10.068;2023-07-08T11:23:47;32.50;92.30
39881;DHT22;25554;44.954;10.068;2023-07-08T11:31:45;32.80;93.20
39881;DHT22;25554;44.954;10.068;2023-07-08T11:34:12;33.00;92.50
39881;DHT22;25554;44.954;10.068;2023-07-08T11:36:41;32.90;92.00
39881;DHT22;25554;44.954;10.068;2023-07-08T11:39:31;32.80;92.10
39881;DHT22;25554;44.954;10.068;2023-07-08T11:42:19;32.80;92.20
39881;DHT22;25554;44.954;10.068;2023-07-08T11:44:54;32.80;91.90
39881;DHT22;25554;44.954;10.068;2023-07-08T11:47:52;32.80;91.70
39881;DHT22;25554;44.954;10.068;2023-07-08T11:51:31;32.90;92.00
39881;DHT22;25554;44.954;10.068;2023-07-08T11:58:36;32.60;91.50
39881;DHT22;25554;44.954;10.068;2023-07-08T12:08:58;32.60;92.70
39881;DHT22;25554;44.954;10.068;2023-07-08T12:12:30;32.60;92.40
39881;DHT22;25554;44.954;10.068;2023-07-08T12:15:25;32.80;92.30
39881;DHT22;25554;44.954;10.068;2023-07-08T12:18:15;32.60;92.20
39881;DHT22;25554;44.954;10.068;2023-07-08T12:21:01;32.50;92.30
39881;DHT22;25554;44.954;10.068;2023-07-08T12:24:05;32.30;92.40
39881;DHT22;25554;44.954;10.068;2023-07-08T12:26:58;32.40;92.50
39881;DHT22;25554;44.954;10.068;2023-07-08T12:30:03;32.50;92.20
39881;DHT22;25554;44.954;10.068;2023-07-08T12:32:40;32.80;92.20
39881;DHT22;25554;44.954;10.068;2023-07-08T12:35:28;32.60;91.80
39881;DHT22;25554;44.954;10.068;2023-07-08T12:38:05;32.80;91.50
39881;DHT22;25554;44.954;10.068;2023-07-08T12:40:32;32.80;91.70
39881;DHT22;25554;44.954;10.068;2023-07-08T12:42:59;33.00;91.40
39881;DHT22;25554;44.954;10.068;2023-07-08T12:45:30;33.10;90.80
39881;DHT22;25554;44.954;10.068;2023-07-08T12:48:02;33.00;90.60
39881;DHT22;25554;44.954;10.068;2023-07-08T12:50:31;32.90;90.90
39881;DHT22;25554;44.954;10.068;2023-07-08T12:52:58;33.00;91.20
39881;DHT22;25554;44.954;10.068;2023-07-08T12:55:30;33.20;91.50
39881;DHT22;25554;44.954;10.068;2023-07-08T12:57:57;33.20;91.70
39881;DHT22;25554;44.954;10.068;2023-07-08T13:00:32;33.30;91.70
39881;DHT22;25554;44.954;10.068;2023-07-08T13:03:16;33.50;91.70
39881;DHT22;25554;44.954;10.068;2023-07-08T13:05:48;33.60;91.20
39881;DHT22;25554;44.954;10.068;2023-07-08T13:08:21;33.50;90.90
39881;DHT22;25554;44.954;10.068;2023-07-08T13:10:51;33.50;91.20
39881;DHT22;25554;44.954;10.068;2023-07-08T13:13:25;33.50;91.00
39881;DHT22;25554;44.954;10.068;2023-07-08T13:15:54;33.70;91.00
39881;DHT22;25554;44.954;10.068;2023-07-08T13:18:31;33.80;91.00
39881;DHT22;25554;44.954;10.068;2023-07-08T13:20:59;33.70;91.10
39881;DHT22;25554;44.954;10.068;2023-07-08T13:23:28;33.40;90.60
39881;DHT22;25554;44.954;10.068;2023-07-08T13:25:56;33.30;91.10
39881;DHT22;25554;44.954;10.068;2023-07-08T13:28:26;33.30;90.90
39881;DHT22;25554;44.954;10.068;2023-07-08T13:31:00;33.30;90.80
39881;DHT22;25554;44.954;10.068;2023-07-08T13:33:37;33.20;90.50
39881;DHT22;25554;44.954;10.068;2023-07-08T13:36:06;33.30;90.60
39881;DHT22;25554;44.954;10.068;2023-07-08T13:38:35;33.40;90.70
39881;DHT22;25554;44.954;10.068;2023-07-08T13:41:06;33.60;90.70
39881;DHT22;25554;44.954;10.068;2023-07-08T13:43:39;33.80;90.50
39881;DHT22;25554;44.954;10.068;2023-07-08T13:49:00;34.10;90.60
39881;DHT22;25554;44.954;10.068;2023-07-08T13:51:31;34.20;90.40
39881;DHT22;25554;44.954;10.068;2023-07-08T13:54:32;34.30;90.80
39881;DHT22;25554;44.954;10.068;2023-07-08T13:56:53;34.40;90.50
39881;DHT22;25554;44.954;10.068;2023-07-08T13:59:24;34.50;90.60
39881;DHT22;25554;44.954;10.068;2023-07-08T14:01:56;34.60;90.30
39881;DHT22;25554;44.954;10.068;2023-07-08T14:04:29;34.80;90.20
39881;DHT22;25554;44.954;10.068;2023-07-08T14:06:56;34.80;89.90
39881;DHT22;25554;44.954;10.068;2023-07-08T14:09:24;34.90;89.60
39881;DHT22;25554;44.954;10.068;2023-07-08T14:11:51;34.60;89.30
39881;DHT22;25554;44.954;10.068;2023-07-08T14:14:18;34.40;90.10
39881;DHT22;25554;44.954;10.068;2023-07-08T14:16:51;34.50;90.20
39881;DHT22;25554;44.954;10.068;2023-07-08T14:19:22;34.80;89.90
39881;DHT22;25554;44.954;10.068;2023-07-08T14:21:53;35.00;90.20
39881;DHT22;25554;44.954;10.068;2023-07-08T14:24:20;34.80;90.40
39881;DHT22;25554;44.954;10.068;2023-07-08T14:26:47;34.60;90.30
39881;DHT22;25554;44.954;10.068;2023-07-08T14:29:13;34.50;90.30
39881;DHT22;25554;44.954;10.068;2023-07-08T14:31:40;34.50;90.20
39881;DHT22;25554;44.954;10.068;2023-07-08T14:34:23;34.40;90.40
39881;DHT22;25554;44.954;10.068;2023-07-08T14:36:50;34.60;90.00
39881;DHT22;25554;44.954;10.068;2023-07-08T14:39:17;34.70;90.00
39881;DHT22;25554;44.954;10.068;2023-07-08T14:41:46;34.70;90.40
39881;DHT22;25554;44.954;10.068;2023-07-08T14:44:31;34.70;90.40
39881;DHT22;25554;44.954;10.068;2023-07-08T14:46:59;34.60;90.30
39881;DHT22;25554;44.954;10.068;2023-07-08T14:49:29;34.60;90.50
39881;DHT22;25554;44.954;10.068;2023-07-08T14:55:37;35.00;90.40
39881;DHT22;25554;44.954;10.068;2023-07-08T14:58:06;34.90;90.00
39881;DHT22;25554;44.954;10.068;2023-07-08T15:01:15;34.90;89.50
39881;DHT22;25554;44.954;10.068;2023-07-08T15:03:57;34.20;90.10
39881;DHT22;25554;44.954;10.068;2023-07-08T15:06:29;34.30;90.00
39881;DHT22;25554;44.954;10.068;2023-07-08T15:09:03;34.20;90.00
39881;DHT22;25554;44.954;10.068;2023-07-08T15:12:25;34.40;90.30
39881;DHT22;25554;44.954;10.068;2023-07-08T15:15:47;34.60;89.90
39881;DHT22;25554;44.954;10.068;2023-07-08T15:19:48;34.80;90.30
39881;DHT22;25554;44.954;10.068;2023-07-08T15:23:10;34.80;90.50
39881;DHT22;25554;44.954;10.068;2023-07-08T15:26:12;34.80;90.70
39881;DHT22;25554;44.954;10.068;2023-07-08T15:37:26;34.50;90.90
39881;DHT22;25554;44.954;10.068;2023-07-08T16:03:06;34.10;90.40
39881;DHT22;25554;44.954;10.068;2023-07-08T16:05:58;34.30;90.50
39881;DHT22;25554;44.954;10.068;2023-07-08T16:12:45;34.30;90.70
39881;DHT22;25554;44.954;10.068;2023-07-08T16:18:45;34.30;90.60
39881;DHT22;25554;44.954;10.068;2023-07-08T16:21:21;34.20;91.10
39881;DHT22;25554;44.954;10.068;2023-07-08T16:23:55;34.50;91.60
39881;DHT22;25554;44.954;10.068;2023-07-08T16:26:22;34.40;91.20
39881;DHT22;25554;44.954;10.068;2023-07-08T16:28:54;34.50;90.90
39881;DHT22;25554;44.954;10.068;2023-07-08T16:31:26;34.40;90.50
39881;DHT22;25554;44.954;10.068;2023-07-08T16:38:25;34.40;90.50
39881;DHT22;25554;44.954;10.068;2023-07-08T16:41:03;34.40;91.40
39881;DHT22;25554;44.954;10.068;2023-07-08T16:43:48;34.30;91.20
39881;DHT22;25554;44.954;10.068;2023-07-08T16:46:30;34.30;91.00
39881;DHT22;25554;44.954;10.068;2023-07-08T16:49:03;34.10;90.80
39881;DHT22;25554;44.954;10.068;2023-07-08T16:51:33;34.10;90.70
39881;DHT22;25554;44.954;10.068;2023-07-08T16:58:04;33.80;91.00
39881;DHT22;25554;44.954;10.068;2023-07-08T17:00:41;33.80;91.00
39881;DHT22;25554;44.954;10.068;2023-07-08T17:03:16;33.80;90.90
39881;DHT22;25554;44.954;10.068;2023-07-08T17:06:27;33.90;90.70
39881;DHT22;25554;44.954;10.068;2023-07-08T17:09:07;33.80;90.80
39881;DHT22;25554;44.954;10.068;2023-07-08T17:12:28;33.80;91.00
39881;DHT22;25554;44.954;10.068;2023-07-08T17:18:46;33.70;92.00
39881;DHT22;25554;44.954;10.068;2023-07-08T17:21:38;33.50;91.90
39881;DHT22;25554;44.954;10.068;2023-07-08T17:24:07;33.40;91.60
39881;DHT22;25554;44.954;10.068;2023-07-08T17:26:33;33.30;91.60
39881;DHT22;25554;44.954;10.068;2023-07-08T17:29:27;32.90;91.60
39881;DHT22;25554;44.954;10.068;2023-07-08T17:32:45;32.80;91.70
39881;DHT22;25554;44.954;10.068;2023-07-08T17:39:43;32.40;92.10
39881;DHT22;25554;44.954;10.068;2023-07-08T17:42:45;32.20;92.30
39881;DHT22;25554;44.954;10.068;2023-07-08T17:45:47;32.20;92.30
39881;DHT22;25554;44.954;10.068;2023-07-08T17:48:37;32.00;92.40
39881;DHT22;25554;44.954;10.068;2023-07-08T17:58:14;31.80;92.90
39881;DHT22;25554;44.954;10.068;2023-07-08T18:00:46;31.60;92.60
39881;DHT22;25554;44.954;10.068;2023-07-08T18:03:16;31.40;92.70
39881;DHT22;25554;44.954;10.068;2023-07-08T18:05:43;31.40;92.90
39881;DHT22;25554;44.954;10.068;2023-07-08T18:08:09;31.30;93.00